Time;durP1;ratioP1;P1;durP2;ratioP2;P2;SDS_P1;SDS_P2;PMS_P1;PMS_P2;Temp;Humidity;BMP_temperature;BMP_pressure;BME280_temperature;BME280_humidity;BME280_pressure;Samples;Min_cycle;Max_cycle;Signal;HPM_P1;HPM_P2
2023/01/26 00:01:22;;;;;;;16.23;9.07;;;;;;;;;;5074563;28;20028;-68
2023/01/26 00:03:48;;;;;;;17.15;10.02;;;;;;;;;;5080067;28;20035;-70
2023/01/26 00:06:15;;;;;;;17.65;11.13;;;;;;;;;;5078142;28;20039;-67
2023/01/26 00:08:46;;;;;;;22.73;11.57;;;;;;;;;;5076974;28;20036;-68
2023/01/26 00:11:15;;;;;;;19.77;11.13;;;;;;;;;;5078244;28;20040;-69
2023/01/26 00:13:41;;;;;;;18.83;10.50;;;;;;;;;;5079018;28;20396;-68
2023/01/26 00:16:12;;;;;;;18.88;10.90;;;;;;;;;;5078946;28;20102;-68
2023/01/26 00:18:39;;;;;;;20.05;11.43;;;;;;;;;;5077526;28;20040;-68
2023/01/26 00:21:06;;;;;;;19.77;11.55;;;;;;;;;;5079309;28;20064;-68
2023/01/26 00:23:33;;;;;;;19.52;11.13;;;;;;;;;;5082591;28;20039;-68
2023/01/26 00:25:59;;;;;;;22.13;11.18;;;;;;;;;;5076722;28;20070;-69
2023/01/26 00:28:26;;;;;;;23.45;11.90;;;;;;;;;;5083113;28;20035;-68
2023/01/26 00:30:52;;;;;;;18.80;10.35;;;;;;;;;;5055959;28;20032;-69
2023/01/26 00:33:17;;;;;;;21.00;10.70;;;;;;;;;;5075894;28;20063;-68
2023/01/26 00:35:43;;;;;;;22.50;11.98;;;;;;;;;;5084310;28;20109;-68
2023/01/26 00:38:13;;;;;;;24.58;11.95;;;;;;;;;;5062279;28;20048;-69
2023/01/26 00:40:40;;;;;;;20.38;10.45;;;;;;;;;;5081664;28;20028;-68
2023/01/26 00:43:06;;;;;;;17.95;10.48;;;;;;;;;;5085154;28;20040;-68
2023/01/26 00:45:33;;;;;;;21.85;11.63;;;;;;;;;;5076999;28;20454;-68
2023/01/26 00:47:59;;;;;;;34.45;15.43;;;;;;;;;;5082037;28;20119;-68
2023/01/26 00:50:25;;;;;;;29.75;14.60;;;;;;;;;;5058621;28;20115;-68
2023/01/26 00:52:52;;;;;;;20.02;11.88;;;;;;;;;;5080313;28;20039;-68
2023/01/26 00:55:18;;;;;;;16.05;10.32;;;;;;;;;;5083485;28;20541;-68
2023/01/26 00:57:44;;;;;;;18.05;10.60;;;;;;;;;;5081575;28;20653;-68
2023/01/26 01:00:15;;;;;;;9.57;7.03;;;;;;;;;;5066387;28;20051;-68
2023/01/26 01:02:43;;;;;;;27.50;13.52;;;;;;;;;;5066149;28;20512;-68
2023/01/26 01:05:10;;;;;;;20.13;11.68;;;;;;;;;;5078251;28;20032;-68
2023/01/26 01:07:35;;;;;;;23.42;12.73;;;;;;;;;;5083654;28;20040;-68
2023/01/26 01:10:01;;;;;;;22.17;12.13;;;;;;;;;;5070356;28;20054;-68
2023/01/26 01:12:27;;;;;;;16.40;9.85;;;;;;;;;;5071185;28;20406;-68
2023/01/26 01:14:53;;;;;;;20.05;11.35;;;;;;;;;;5080623;28;20491;-69
2023/01/26 01:17:19;;;;;;;19.27;12.02;;;;;;;;;;5085574;28;20032;-68
2023/01/26 01:19:44;;;;;;;19.52;10.82;;;;;;;;;;5085673;28;20579;-68
2023/01/26 01:22:11;;;;;;;20.80;12.25;;;;;;;;;;5083872;28;20500;-68
2023/01/26 01:24:37;;;;;;;23.65;12.23;;;;;;;;;;5067810;28;20032;-69
2023/01/26 01:27:03;;;;;;;24.48;13.35;;;;;;;;;;5074855;28;20029;-66
2023/01/26 01:29:28;;;;;;;22.63;11.73;;;;;;;;;;5070652;28;20488;-69
2023/01/26 01:31:54;;;;;;;22.88;12.10;;;;;;;;;;5077274;28;20437;-69
2023/01/26 01:34:19;;;;;;;22.02;11.23;;;;;;;;;;5083577;28;20028;-66
2023/01/26 01:36:45;;;;;;;8.85;5.97;;;;;;;;;;5079199;28;20028;-66
2023/01/26 01:39:10;;;;;;;14.60;9.27;;;;;;;;;;5077048;28;20125;-67
2023/01/26 01:41:36;;;;;;;24.38;12.30;;;;;;;;;;5076823;28;20041;-66
2023/01/26 01:44:12;;;;;;;12.15;8.10;;;;;;;;;;5064926;28;20541;-67
2023/01/26 01:46:40;;;;;;;19.42;11.60;;;;;;;;;;5060805;28;20037;-66
2023/01/26 01:49:14;;;;;;;22.63;11.50;;;;;;;;;;5076017;28;20588;-68
2023/01/26 01:51:46;;;;;;;17.63;10.02;;;;;;;;;;5077848;28;20074;-66
2023/01/26 01:54:17;;;;;;;23.60;11.52;;;;;;;;;;5085920;28;20238;-67
2023/01/26 01:56:48;;;;;;;24.85;12.65;;;;;;;;;;5073935;28;20028;-70
2023/01/26 01:59:18;;;;;;;21.52;11.63;;;;;;;;;;5061288;28;20033;-66
2023/01/26 02:01:45;;;;;;;20.98;11.25;;;;;;;;;;5085278;28;20032;-69
2023/01/26 02:04:10;;;;;;;20.00;11.15;;;;;;;;;;5082274;28;20275;-69
2023/01/26 02:06:53;;;;;;;25.67;12.50;;;;;;;;;;5050033;28;20055;-68
2023/01/26 02:12:13;;;;;;;22.10;12.20;;;;;;;;;;5060900;28;20036;-68
2023/01/26 02:14:40;;;;;;;23.25;10.40;;;;;;;;;;5081472;28;20189;-68
2023/01/26 02:17:05;;;;;;;32.72;10.35;;;;;;;;;;5065142;28;20106;-68
2023/01/26 02:19:37;;;;;;;26.45;12.32;;;;;;;;;;5060914;28;20074;-69
2023/01/26 02:22:09;;;;;;;26.60;12.65;;;;;;;;;;5080342;28;20047;-69
2023/01/26 02:24:37;;;;;;;23.77;12.75;;;;;;;;;;5066180;28;20402;-68
2023/01/26 02:27:03;;;;;;;14.95;8.75;;;;;;;;;;5081191;28;20132;-69
2023/01/26 02:29:32;;;;;;;22.98;11.68;;;;;;;;;;5081074;28;20032;-68
2023/01/26 02:31:57;;;;;;;20.50;11.85;;;;;;;;;;5074401;28;20024;-68
2023/01/26 02:34:27;;;;;;;25.63;11.25;;;;;;;;;;5066447;28;20654;-69
2023/01/26 02:36:58;;;;;;;12.27;7.20;;;;;;;;;;5060469;28;20089;-68
2023/01/26 02:39:45;;;;;;;18.95;10.65;;;;;;;;;;5079630;28;20074;-68
2023/01/26 02:44:55;;;;;;;6.40;5.20;;;;;;;;;;5068181;28;20459;-69
2023/01/26 02:47:21;;;;;;;23.30;11.98;;;;;;;;;;5068768;28;20024;-69
2023/01/26 02:49:49;;;;;;;15.02;9.18;;;;;;;;;;5063409;28;20419;-68
2023/01/26 02:52:24;;;;;;;21.17;11.82;;;;;;;;;;5064047;28;20108;-69
2023/01/26 02:57:41;;;;;;;19.67;10.82;;;;;;;;;;5045210;28;20032;-69
2023/01/26 03:00:10;;;;;;;13.18;9.02;;;;;;;;;;5062873;28;20367;-67
2023/01/26 03:02:35;;;;;;;15.60;8.82;;;;;;;;;;5082106;28;20044;-69
2023/01/26 03:05:03;;;;;;;15.65;10.27;;;;;;;;;;5068167;28;20024;-67
2023/01/26 03:07:29;;;;;;;29.48;14.48;;;;;;;;;;5073112;28;20059;-65
2023/01/26 03:09:57;;;;;;;27.30;14.07;;;;;;;;;;5061024;28;20031;-67
2023/01/26 03:12:23;;;;;;;27.48;13.45;;;;;;;;;;5078738;28;20030;-67
2023/01/26 03:15:33;;;;;;;20.65;10.40;;;;;;;;;;5085659;28;20077;-69
2023/01/26 03:17:35;;;;;;;24.40;12.25;;;;;;;;;;5057891;28;20032;-69
2023/01/26 03:28:21;;;;;;;30.05;14.20;;;;;;;;;;5097005;28;20066;-69
2023/01/26 03:30:48;;;;;;;24.92;12.82;;;;;;;;;;5070556;28;20028;-69
2023/01/26 03:33:18;;;;;;;26.10;12.52;;;;;;;;;;5063040;28;20030;-69
2023/01/26 03:35:45;;;;;;;26.40;12.85;;;;;;;;;;5054320;28;20027;-67
2023/01/26 03:38:11;;;;;;;23.60;12.75;;;;;;;;;;5066328;28;20109;-70
2023/01/26 03:57:21;;;;;;;22.38;11.05;;;;;;;;;;5063388;28;20071;-69
2023/01/26 03:59:47;;;;;;;20.92;11.48;;;;;;;;;;5065099;28;20035;-69
2023/01/26 04:10:44;;;;;;;23.25;10.88;;;;;;;;;;5055588;28;19912;-69
2023/01/26 04:21:32;;;;;;;34.40;14.90;;;;;;;;;;5061312;28;20510;-67
2023/01/26 04:24:00;;;;;;;30.55;13.38;;;;;;;;;;5056114;28;20036;-69
2023/01/26 04:26:35;;;;;;;32.33;13.43;;;;;;;;;;5058216;28;20514;-67
2023/01/26 04:29:06;;;;;;;24.52;13.02;;;;;;;;;;5057515;28;20040;-67
2023/01/26 04:31:33;;;;;;;27.40;12.73;;;;;;;;;;5074812;28;20044;-67
2023/01/26 04:34:00;;;;;;;26.13;12.10;;;;;;;;;;5059653;28;20032;-68
2023/01/26 04:36:26;;;;;;;23.05;12.35;;;;;;;;;;5059361;28;20110;-69
2023/01/26 04:38:52;;;;;;;30.92;13.98;;;;;;;;;;5076284;28;20491;-69
2023/01/26 04:41:19;;;;;;;31.67;13.90;;;;;;;;;;5077543;28;20119;-69
2023/01/26 04:43:51;;;;;;;36.03;14.40;;;;;;;;;;5068281;28;20128;-69
2023/01/26 04:46:17;;;;;;;32.90;14.15;;;;;;;;;;5078291;28;20543;-69
2023/01/26 04:48:42;;;;;;;27.00;13.60;;;;;;;;;;5057432;28;20111;-68
2023/01/26 04:51:14;;;;;;;31.95;15.45;;;;;;;;;;5076939;28;20537;-69
2023/01/26 04:53:39;;;;;;;33.05;14.02;;;;;;;;;;5065082;28;20032;-69
2023/01/26 04:56:07;;;;;;;33.88;13.77;;;;;;;;;;5063047;28;20047;-68
2023/01/26 04:58:33;;;;;;;33.45;14.23;;;;;;;;;;5075054;28;20399;-68
2023/01/26 05:00:59;;;;;;;32.53;13.18;;;;;;;;;;5061179;28;20530;-68
2023/01/26 05:03:26;;;;;;;26.00;12.27;;;;;;;;;;5083524;28;20032;-68
2023/01/26 05:05:53;;;;;;;26.83;12.27;;;;;;;;;;5082771;28;20070;-69
2023/01/26 05:08:21;;;;;;;32.67;13.60;;;;;;;;;;5064533;28;20207;-69
2023/01/26 05:10:47;;;;;;;37.20;13.95;;;;;;;;;;5062515;28;20040;-69
2023/01/26 05:13:34;;;;;;;29.17;12.88;;;;;;;;;;5074200;28;20097;-68
2023/01/26 05:16:14;;;;;;;29.38;12.70;;;;;;;;;;5062107;28;20077;-68
2023/01/26 05:18:52;;;;;;;27.95;12.15;;;;;;;;;;5062862;28;20789;-68
2023/01/26 05:21:34;;;;;;;31.20;12.98;;;;;;;;;;5063027;28;20382;-69
2023/01/26 05:23:59;;;;;;;34.15;13.23;;;;;;;;;;5076264;28;20540;-68
2023/01/26 05:26:44;;;;;;;32.45;12.65;;;;;;;;;;5078665;28;20032;-69
2023/01/26 05:29:16;;;;;;;30.77;13.93;;;;;;;;;;5072530;28;20033;-68
2023/01/26 05:31:42;;;;;;;40.65;13.75;;;;;;;;;;5073254;28;20066;-67
2023/01/26 05:34:08;;;;;;;23.50;10.15;;;;;;;;;;5064519;28;20067;-68
2023/01/26 05:36:35;;;;;;;28.50;12.60;;;;;;;;;;5065286;28;20039;-68
2023/01/26 05:39:01;;;;;;;32.00;12.80;;;;;;;;;;5056119;28;20561;-68
2023/01/26 05:41:27;;;;;;;41.97;15.00;;;;;;;;;;5060366;28;20040;-68
2023/01/26 05:44:15;;;;;;;24.40;11.55;;;;;;;;;;5069185;28;20055;-68
2023/01/26 05:46:44;;;;;;;34.95;11.80;;;;;;;;;;5075149;28;20449;-68
2023/01/26 05:49:10;;;;;;;31.48;13.13;;;;;;;;;;5075662;28;20036;-68
2023/01/26 05:51:35;;;;;;;27.08;12.38;;;;;;;;;;5077645;28;20048;-66
2023/01/26 05:54:03;;;;;;;33.95;13.07;;;;;;;;;;5067916;28;20040;-69
2023/01/26 05:56:29;;;;;;;33.30;13.23;;;;;;;;;;5068888;28;20032;-66
2023/01/26 05:58:59;;;;;;;34.67;12.98;;;;;;;;;;5078948;28;20032;-67
2023/01/26 06:01:25;;;;;;;31.55;12.75;;;;;;;;;;5060325;28;20043;-67
2023/01/26 06:03:56;;;;;;;30.67;12.85;;;;;;;;;;5067605;28;20036;-68
2023/01/26 06:06:23;;;;;;;25.55;12.13;;;;;;;;;;5076646;28;20064;-68
2023/01/26 06:09:09;;;;;;;33.92;13.30;;;;;;;;;;5051485;28;20088;-66
2023/01/26 06:11:58;;;;;;;29.15;13.27;;;;;;;;;;5056402;28;20538;-68
2023/01/26 06:14:31;;;;;;;36.63;13.80;;;;;;;;;;5064100;28;20036;-67
2023/01/26 06:16:56;;;;;;;37.70;12.82;;;;;;;;;;5067105;28;20044;-69
2023/01/26 06:19:23;;;;;;;40.65;14.38;;;;;;;;;;5078558;28;20067;-68
2023/01/26 06:21:53;;;;;;;31.30;13.50;;;;;;;;;;5074919;28;20068;-67
2023/01/26 06:24:19;;;;;;;32.85;13.00;;;;;;;;;;5071529;28;20066;-69
2023/01/26 06:26:48;;;;;;;27.25;12.20;;;;;;;;;;5064939;28;20435;-68
2023/01/26 06:29:15;;;;;;;26.52;10.52;;;;;;;;;;5064505;28;20123;-67
2023/01/26 06:31:41;;;;;;;26.63;11.50;;;;;;;;;;5066058;28;20538;-67
2023/01/26 06:34:08;;;;;;;29.70;11.93;;;;;;;;;;5076031;28;20041;-68
2023/01/26 06:36:37;;;;;;;30.20;12.40;;;;;;;;;;5065252;28;20040;-69
2023/01/26 06:39:07;;;;;;;32.67;14.88;;;;;;;;;;5067588;28;20036;-67
2023/01/26 06:41:34;;;;;;;35.55;12.90;;;;;;;;;;5080453;28;20418;-67
2023/01/26 06:43:59;;;;;;;37.00;14.98;;;;;;;;;;5059942;28;20035;-67
2023/01/26 06:46:25;;;;;;;38.17;15.85;;;;;;;;;;5066894;28;20131;-68
2023/01/26 06:48:53;;;;;;;34.35;14.80;;;;;;;;;;5064234;28;20492;-68
2023/01/26 06:51:18;;;;;;;27.95;12.65;;;;;;;;;;5081838;28;20081;-69
2023/01/26 06:53:51;;;;;;;30.27;13.38;;;;;;;;;;5074441;28;20046;-69
2023/01/26 06:56:40;;;;;;;27.38;11.88;;;;;;;;;;5078094;28;20036;-69
2023/01/26 06:59:24;;;;;;;28.02;11.60;;;;;;;;;;5076392;28;20115;-68
2023/01/26 07:02:16;;;;;;;27.02;11.75;;;;;;;;;;5083267;28;20065;-68
2023/01/26 07:04:41;;;;;;;25.25;10.38;;;;;;;;;;5080898;28;20030;-67
2023/01/26 07:07:07;;;;;;;26.77;11.20;;;;;;;;;;5080131;28;20111;-67
2023/01/26 07:09:32;;;;;;;27.23;11.45;;;;;;;;;;5072459;28;20036;-67
2023/01/26 07:11:58;;;;;;;21.50;9.82;;;;;;;;;;5077939;28;20032;-67
2023/01/26 07:14:23;;;;;;;19.73;10.27;;;;;;;;;;5069839;28;20074;-66
2023/01/26 07:16:49;;;;;;;24.17;11.13;;;;;;;;;;5087912;28;20059;-67
2023/01/26 07:19:14;;;;;;;21.83;10.95;;;;;;;;;;5079170;28;20028;-67
2023/01/26 07:21:40;;;;;;;28.50;11.20;;;;;;;;;;5072813;28;20039;-67
2023/01/26 07:24:07;;;;;;;20.83;10.65;;;;;;;;;;5077105;28;20104;-66
2023/01/26 07:26:33;;;;;;;19.73;9.77;;;;;;;;;;5086632;28;20112;-67
2023/01/26 07:28:58;;;;;;;25.08;10.93;;;;;;;;;;5082181;28;20546;-66
2023/01/26 07:31:24;;;;;;;22.90;11.45;;;;;;;;;;5073812;28;20059;-66
2023/01/26 07:33:49;;;;;;;28.35;11.43;;;;;;;;;;5082295;28;20024;-67
2023/01/26 07:36:15;;;;;;;25.38;12.27;;;;;;;;;;5086231;28;20411;-66
2023/01/26 07:38:40;;;;;;;24.50;11.65;;;;;;;;;;5082402;28;20386;-66
2023/01/26 07:41:10;;;;;;;22.75;10.57;;;;;;;;;;5077231;28;20028;-66
2023/01/26 07:43:36;;;;;;;24.30;12.32;;;;;;;;;;5070986;28;20435;-67
2023/01/26 07:46:09;;;;;;;23.90;11.43;;;;;;;;;;5080616;28;20032;-66
2023/01/26 07:48:35;;;;;;;24.48;9.65;;;;;;;;;;5080537;28;20402;-66
2023/01/26 07:51:02;;;;;;;21.25;10.77;;;;;;;;;;5058658;28;20028;-66
2023/01/26 07:53:29;;;;;;;21.58;9.88;;;;;;;;;;5073453;28;20021;-66
2023/01/26 07:56:08;;;;;;;23.30;11.02;;;;;;;;;;5084790;28;20035;-67
2023/01/26 07:58:34;;;;;;;24.05;10.05;;;;;;;;;;5079383;28;20032;-67
2023/01/26 08:01:05;;;;;;;21.33;9.57;;;;;;;;;;5078811;28;20142;-67
2023/01/26 08:03:30;;;;;;;21.75;11.50;;;;;;;;;;5078078;28;20048;-67
2023/01/26 08:05:56;;;;;;;24.05;12.18;;;;;;;;;;5081238;28;20667;-67
2023/01/26 08:08:22;;;;;;;28.33;12.13;;;;;;;;;;5073711;28;20491;-67
2023/01/26 08:10:47;;;;;;;26.60;12.32;;;;;;;;;;5078563;28;20487;-66
2023/01/26 08:13:13;;;;;;;25.48;11.75;;;;;;;;;;5077508;28;20024;-67
2023/01/26 08:15:38;;;;;;;23.17;10.23;;;;;;;;;;5077476;28;20532;-67
2023/01/26 08:18:04;;;;;;;28.58;13.43;;;;;;;;;;5082606;28;20087;-67
2023/01/26 08:20:30;;;;;;;25.85;13.10;;;;;;;;;;5081863;28;20123;-67
2023/01/26 08:22:56;;;;;;;27.40;13.88;;;;;;;;;;5075212;28;20108;-67
2023/01/26 08:25:21;;;;;;;28.10;13.50;;;;;;;;;;5078052;28;20039;-66
2023/01/26 08:27:47;;;;;;;26.35;13.15;;;;;;;;;;5083058;28;20039;-66
2023/01/26 08:30:14;;;;;;;22.95;12.35;;;;;;;;;;5079407;28;20038;-66
2023/01/26 08:32:40;;;;;;;25.83;13.15;;;;;;;;;;5076408;28;20077;-67
2023/01/26 08:35:06;;;;;;;27.70;13.55;;;;;;;;;;5078653;28;20048;-67
2023/01/26 08:37:32;;;;;;;31.40;14.25;;;;;;;;;;5075129;28;20043;-67
2023/01/26 08:39:58;;;;;;;19.08;10.40;;;;;;;;;;5080979;28;20032;-65
2023/01/26 08:42:24;;;;;;;26.02;14.45;;;;;;;;;;5075234;28;20025;-65
2023/01/26 08:44:51;;;;;;;24.40;11.82;;;;;;;;;;5070688;28;20291;-67
2023/01/26 08:47:17;;;;;;;21.38;11.30;;;;;;;;;;5077894;28;20040;-67
2023/01/26 08:49:42;;;;;;;25.17;12.07;;;;;;;;;;5073446;28;20063;-65
2023/01/26 08:52:08;;;;;;;17.42;9.65;;;;;;;;;;5077951;28;20039;-67
2023/01/26 08:54:33;;;;;;;17.05;9.40;;;;;;;;;;5071537;28;20031;-67
2023/01/26 08:56:59;;;;;;;19.25;9.70;;;;;;;;;;5079961;28;20032;-67
2023/01/26 08:59:24;;;;;;;16.45;9.73;;;;;;;;;;5069383;28;20020;-67
2023/01/26 09:01:50;;;;;;;16.40;9.02;;;;;;;;;;5079295;28;20032;-67
2023/01/26 09:04:15;;;;;;;14.90;8.98;;;;;;;;;;5078865;28;20036;-67
2023/01/26 09:06:41;;;;;;;17.42;9.82;;;;;;;;;;5080032;28;20040;-65
2023/01/26 09:09:11;;;;;;;13.27;8.48;;;;;;;;;;5076254;28;20043;-66
2023/01/26 09:11:38;;;;;;;18.95;10.07;;;;;;;;;;5074829;28;20036;-65
2023/01/26 09:14:03;;;;;;;19.70;9.55;;;;;;;;;;5072586;28;20112;-67
2023/01/26 09:16:29;;;;;;;18.45;10.90;;;;;;;;;;5073959;28;20431;-66
2023/01/26 09:18:55;;;;;;;17.48;10.35;;;;;;;;;;5070830;28;20044;-67
2023/01/26 09:21:22;;;;;;;22.45;11.32;;;;;;;;;;5080426;28;20272;-66
2023/01/26 09:23:48;;;;;;;17.23;9.45;;;;;;;;;;5078546;28;20124;-66
2023/01/26 09:26:14;;;;;;;16.00;9.63;;;;;;;;;;5076510;28;20115;-67
2023/01/26 09:28:39;;;;;;;20.73;11.10;;;;;;;;;;5081247;28;20025;-67
2023/01/26 09:31:07;;;;;;;15.88;9.60;;;;;;;;;;5077134;28;20058;-67
2023/01/26 09:33:33;;;;;;;39.53;23.52;;;;;;;;;;5083504;28;20475;-65
2023/01/26 09:36:07;;;;;;;15.68;9.23;;;;;;;;;;5085631;28;20039;-66
2023/01/26 09:38:33;;;;;;;17.13;10.68;;;;;;;;;;5089717;28;20040;-67
2023/01/26 09:41:01;;;;;;;20.23;10.55;;;;;;;;;;5085691;28;20039;-67
2023/01/26 09:43:46;;;;;;;21.75;9.57;;;;;;;;;;5072070;28;20405;-66
2023/01/26 09:46:39;;;;;;;18.58;10.05;;;;;;;;;;5084786;28;20073;-66
2023/01/26 09:49:14;;;;;;;15.45;9.52;;;;;;;;;;5064657;28;20180;-66
2023/01/26 09:51:45;;;;;;;16.92;9.65;;;;;;;;;;5077420;28;20036;-66
2023/01/26 09:54:30;;;;;;;16.35;10.02;;;;;;;;;;5080326;28;20058;-66
2023/01/26 09:56:59;;;;;;;16.65;8.82;;;;;;;;;;5073002;28;20181;-66
2023/01/26 09:59:33;;;;;;;13.85;7.95;;;;;;;;;;5081813;28;20028;-66
2023/01/26 10:02:16;;;;;;;12.00;7.72;;;;;;;;;;5078891;28;20357;-66
2023/01/26 10:04:44;;;;;;;14.25;8.77;;;;;;;;;;5086711;28;20054;-66
2023/01/26 10:07:12;;;;;;;13.35;8.60;;;;;;;;;;5086664;28;20043;-66
2023/01/26 10:09:51;;;;;;;11.98;7.38;;;;;;;;;;5074129;28;20039;-67
2023/01/26 10:12:28;;;;;;;10.18;6.90;;;;;;;;;;5079723;28;20085;-66
2023/01/26 10:14:58;;;;;;;14.07;8.45;;;;;;;;;;5076769;28;20051;-66
2023/01/26 10:17:29;;;;;;;10.80;7.40;;;;;;;;;;5084282;28;20039;-66
2023/01/26 10:20:08;;;;;;;15.02;8.32;;;;;;;;;;5079512;28;20166;-66
2023/01/26 10:22:52;;;;;;;15.03;9.50;;;;;;;;;;5083812;28;20049;-66
2023/01/26 10:25:34;;;;;;;14.63;9.20;;;;;;;;;;5077563;28;20064;-66
2023/01/26 10:28:13;;;;;;;14.10;8.85;;;;;;;;;;5079272;28;20031;-67
2023/01/26 10:30:40;;;;;;;14.63;8.87;;;;;;;;;;5085513;28;20491;-67
2023/01/26 10:33:21;;;;;;;13.02;8.00;;;;;;;;;;5079283;28;20286;-66
2023/01/26 10:35:46;;;;;;;12.63;7.88;;;;;;;;;;5080109;28;20551;-66
2023/01/26 10:38:33;;;;;;;12.18;7.68;;;;;;;;;;5077357;28;20060;-67
2023/01/26 10:41:01;;;;;;;11.73;7.18;;;;;;;;;;5079053;28;20035;-67
2023/01/26 10:43:27;;;;;;;13.18;7.93;;;;;;;;;;5080595;28;20444;-67
2023/01/26 10:45:52;;;;;;;13.70;8.70;;;;;;;;;;5077573;28;20594;-68
2023/01/26 10:48:21;;;;;;;17.95;8.98;;;;;;;;;;5083181;28;20036;-65
2023/01/26 10:50:47;;;;;;;19.73;10.37;;;;;;;;;;5082537;28;20097;-66
2023/01/26 10:53:24;;;;;;;16.25;9.20;;;;;;;;;;5078323;28;20286;-66
2023/01/26 10:56:00;;;;;;;18.85;9.30;;;;;;;;;;5073948;28;20028;-66
2023/01/26 10:58:45;;;;;;;13.52;7.80;;;;;;;;;;5072950;28;20540;-66
2023/01/26 11:01:14;;;;;;;16.42;8.57;;;;;;;;;;5077879;28;20118;-66
2023/01/26 11:03:41;;;;;;;17.48;9.30;;;;;;;;;;5087486;28;20486;-66
2023/01/26 11:06:13;;;;;;;19.13;10.57;;;;;;;;;;5077063;28;20059;-66
2023/01/26 11:08:39;;;;;;;20.08;10.27;;;;;;;;;;5078415;28;20671;-66
2023/01/26 11:11:09;;;;;;;13.38;8.32;;;;;;;;;;5087789;28;20036;-66
2023/01/26 11:13:35;;;;;;;14.23;8.70;;;;;;;;;;5085716;28;20127;-66
2023/01/26 11:16:13;;;;;;;16.67;9.88;;;;;;;;;;5082266;28;20032;-66
2023/01/26 11:19:11;;;;;;;19.08;10.63;;;;;;;;;;5079277;28;20043;-66
2023/01/26 11:21:49;;;;;;;15.18;9.30;;;;;;;;;;5083987;28;20132;-65
2023/01/26 11:24:25;;;;;;;21.02;10.98;;;;;;;;;;5083243;28;20303;-66
2023/01/26 11:27:17;;;;;;;17.90;9.93;;;;;;;;;;5079166;28;20032;-67
2023/01/26 11:30:09;;;;;;;15.65;9.18;;;;;;;;;;5075327;28;20063;-66
2023/01/26 11:33:02;;;;;;;13.32;8.63;;;;;;;;;;5072648;28;20418;-67
2023/01/26 11:35:30;;;;;;;17.58;10.48;;;;;;;;;;5076022;28;20145;-67
2023/01/26 11:38:25;;;;;;;22.27;10.77;;;;;;;;;;5080864;28;20127;-66
2023/01/26 11:41:22;;;;;;;21.20;11.30;;;;;;;;;;5075544;28;20713;-66
2023/01/26 11:44:10;;;;;;;21.30;10.85;;;;;;;;;;5079989;28;20121;-67
2023/01/26 11:47:06;;;;;;;22.58;11.90;;;;;;;;;;5071736;28;20440;-66
2023/01/26 11:49:40;;;;;;;17.73;10.50;;;;;;;;;;5077637;28;20032;-67
2023/01/26 11:52:22;;;;;;;21.20;11.63;;;;;;;;;;5079520;28;20541;-67
2023/01/26 11:55:00;;;;;;;16.35;10.20;;;;;;;;;;5074085;28;20042;-67
2023/01/26 11:57:44;;;;;;;21.48;11.98;;;;;;;;;;5074963;28;20043;-67
2023/01/26 12:00:17;;;;;;;20.33;11.52;;;;;;;;;;5078405;28;20064;-66
2023/01/26 12:02:53;;;;;;;20.85;10.43;;;;;;;;;;5077623;28;20028;-67
2023/01/26 12:05:29;;;;;;;17.98;10.50;;;;;;;;;;5077143;28;20105;-66
2023/01/26 12:08:09;;;;;;;18.67;10.25;;;;;;;;;;5077115;28;20081;-66
2023/01/26 12:10:40;;;;;;;21.60;12.85;;;;;;;;;;5076961;28;20040;-66
2023/01/26 12:13:20;;;;;;;20.58;10.45;;;;;;;;;;5058072;28;20046;-67
2023/01/26 12:15:53;;;;;;;19.48;9.68;;;;;;;;;;5076399;28;20036;-67
2023/01/26 12:18:53;;;;;;;18.00;9.73;;;;;;;;;;5074477;28;20056;-66
2023/01/26 12:21:19;;;;;;;17.10;10.07;;;;;;;;;;5072739;28;20048;-66
2023/01/26 12:23:56;;;;;;;19.17;9.32;;;;;;;;;;5078105;28;20032;-66
2023/01/26 12:26:24;;;;;;;16.83;9.02;;;;;;;;;;5077524;28;20436;-67
2023/01/26 12:29:09;;;;;;;16.42;9.45;;;;;;;;;;5072953;28;20106;-67
2023/01/26 12:32:04;;;;;;;17.42;9.00;;;;;;;;;;5077457;28;20038;-67
2023/01/26 12:34:32;;;;;;;17.60;9.05;;;;;;;;;;5070456;28;20051;-67
2023/01/26 12:37:22;;;;;;;15.52;8.52;;;;;;;;;;5079734;28;20160;-67
2023/01/26 12:39:59;;;;;;;15.45;8.15;;;;;;;;;;5073334;28;20032;-67
2023/01/26 12:42:37;;;;;;;17.13;8.73;;;;;;;;;;5071888;28;20119;-67
2023/01/26 12:45:11;;;;;;;15.50;8.52;;;;;;;;;;5079112;28;20036;-67
2023/01/26 12:47:49;;;;;;;16.33;8.40;;;;;;;;;;5074010;28;20032;-67
2023/01/26 12:50:26;;;;;;;14.27;7.57;;;;;;;;;;5077561;28;20114;-66
2023/01/26 12:53:18;;;;;;;13.18;7.75;;;;;;;;;;5073476;28;20036;-66
2023/01/26 12:55:53;;;;;;;15.88;7.60;;;;;;;;;;5073388;28;20176;-66
2023/01/26 12:58:28;;;;;;;16.80;8.48;;;;;;;;;;5072464;28;20503;-67
2023/01/26 13:01:04;;;;;;;12.88;8.32;;;;;;;;;;5073886;28;20055;-67
2023/01/26 13:03:40;;;;;;;12.35;8.15;;;;;;;;;;5077111;28;20040;-66
2023/01/26 13:06:09;;;;;;;12.45;7.65;;;;;;;;;;5080971;28;20043;-67
2023/01/26 13:08:34;;;;;;;13.65;7.75;;;;;;;;;;5078419;28;20098;-67
2023/01/26 13:11:09;;;;;;;16.05;8.15;;;;;;;;;;5080882;28;20108;-66
2023/01/26 13:13:53;;;;;;;12.27;7.70;;;;;;;;;;5077717;28;20128;-67
2023/01/26 13:16:18;;;;;;;15.23;8.32;;;;;;;;;;5082665;28;20040;-66
2023/01/26 13:18:51;;;;;;;26.38;11.98;;;;;;;;;;5076624;28;20035;-66
2023/01/26 13:21:38;;;;;;;17.45;10.50;;;;;;;;;;5076456;28;20494;-67
2023/01/26 13:24:16;;;;;;;24.05;13.05;;;;;;;;;;5078157;28;20032;-66
2023/01/26 13:26:50;;;;;;;23.55;12.27;;;;;;;;;;5080507;28;20040;-67
2023/01/26 13:29:26;;;;;;;27.35;12.88;;;;;;;;;;5082592;28;20086;-66
2023/01/26 13:31:55;;;;;;;26.15;12.82;;;;;;;;;;5081161;28;20036;-67
2023/01/26 13:34:27;;;;;;;27.88;13.20;;;;;;;;;;5086341;28;20112;-67
2023/01/26 13:36:58;;;;;;;20.70;11.60;;;;;;;;;;5079607;28;20033;-67
2023/01/26 13:39:30;;;;;;;28.60;13.48;;;;;;;;;;5084776;28;20050;-67
2023/01/26 13:41:55;;;;;;;22.98;12.68;;;;;;;;;;5079136;28;20031;-66
2023/01/26 13:44:40;;;;;;;26.63;12.80;;;;;;;;;;5084662;28;20039;-66
2023/01/26 13:47:12;;;;;;;29.08;13.70;;;;;;;;;;5079377;28;20106;-67
2023/01/26 13:49:40;;;;;;;26.77;14.18;;;;;;;;;;5096394;28;20044;-67
2023/01/26 13:52:20;;;;;;;24.60;13.40;;;;;;;;;;5080797;28;20122;-67
2023/01/26 13:54:47;;;;;;;24.15;12.70;;;;;;;;;;5082470;28;20036;-66
2023/01/26 13:57:27;;;;;;;28.67;14.20;;;;;;;;;;5079454;28;20081;-66
2023/01/26 13:59:57;;;;;;;27.50;13.10;;;;;;;;;;5079739;28;20078;-66
2023/01/26 14:02:32;;;;;;;26.13;12.15;;;;;;;;;;5079967;28;20097;-66
2023/01/26 14:04:59;;;;;;;23.17;12.55;;;;;;;;;;5084675;28;20035;-66
2023/01/26 14:07:34;;;;;;;21.17;10.55;;;;;;;;;;5082097;28;20036;-66
2023/01/26 14:10:01;;;;;;;17.70;10.20;;;;;;;;;;5078622;28;20096;-66
2023/01/26 14:12:32;;;;;;;15.75;9.05;;;;;;;;;;5080480;28;20552;-66
2023/01/26 14:15:00;;;;;;;21.58;11.77;;;;;;;;;;5082424;28;20036;-66
2023/01/26 14:17:30;;;;;;;21.25;10.77;;;;;;;;;;5085564;28;20114;-66
2023/01/26 14:19:58;;;;;;;21.90;12.13;;;;;;;;;;5075985;28;20033;-66
2023/01/26 14:22:24;;;;;;;17.33;10.40;;;;;;;;;;5079304;28;20071;-66
2023/01/26 14:24:51;;;;;;;24.10;13.20;;;;;;;;;;5079096;28;20020;-66
2023/01/26 14:27:38;;;;;;;28.92;12.70;;;;;;;;;;5082210;28;20106;-66
2023/01/26 14:30:19;;;;;;;20.02;10.90;;;;;;;;;;5083355;28;20457;-67
2023/01/26 14:32:46;;;;;;;16.75;10.38;;;;;;;;;;5084220;28;20038;-67
2023/01/26 14:35:18;;;;;;;19.85;11.38;;;;;;;;;;5086009;28;20044;-66
2023/01/26 14:37:43;;;;;;;20.05;11.07;;;;;;;;;;5081938;28;20032;-66
2023/01/26 14:40:18;;;;;;;24.92;11.77;;;;;;;;;;5088148;28;20415;-66
2023/01/26 14:42:46;;;;;;;22.80;11.80;;;;;;;;;;5085566;28;20024;-66
2023/01/26 14:45:13;;;;;;;19.20;11.32;;;;;;;;;;5081361;28;20089;-66
2023/01/26 14:47:40;;;;;;;20.45;10.63;;;;;;;;;;5082676;28;20098;-66
2023/01/26 14:50:23;;;;;;;24.50;10.88;;;;;;;;;;5079851;28;20115;-66
2023/01/26 14:52:49;;;;;;;22.83;12.50;;;;;;;;;;5079860;28;20070;-66
2023/01/26 14:55:25;;;;;;;25.52;13.38;;;;;;;;;;5082893;28;20032;-66
2023/01/26 14:57:52;;;;;;;25.55;13.10;;;;;;;;;;5089412;28;20035;-66
2023/01/26 15:00:23;;;;;;;18.63;10.30;;;;;;;;;;5082478;28;20053;-66
2023/01/26 15:02:52;;;;;;;32.45;15.73;;;;;;;;;;5082050;28;20051;-66
2023/01/26 15:05:21;;;;;;;29.55;15.13;;;;;;;;;;5079137;28;20036;-67
2023/01/26 15:08:04;;;;;;;26.70;14.93;;;;;;;;;;5081674;28;20078;-66
2023/01/26 15:10:35;;;;;;;28.08;13.73;;;;;;;;;;5078732;28;20031;-66
2023/01/26 15:13:09;;;;;;;19.73;12.05;;;;;;;;;;5081192;28;20028;-66
2023/01/26 15:15:37;;;;;;;24.15;13.75;;;;;;;;;;5077049;28;20523;-66
2023/01/26 15:18:12;;;;;;;28.13;12.80;;;;;;;;;;5081666;28;20039;-66
2023/01/26 15:21:01;;;;;;;21.48;11.93;;;;;;;;;;5078864;28;20207;-66
2023/01/26 15:23:32;;;;;;;22.88;12.95;;;;;;;;;;5073938;28;20032;-66
2023/01/26 15:26:23;;;;;;;23.45;11.98;;;;;;;;;;5077420;28;20138;-66
2023/01/26 15:28:53;;;;;;;25.63;13.82;;;;;;;;;;5077432;28;20088;-66
2023/01/26 15:31:31;;;;;;;19.02;10.55;;;;;;;;;;5072954;28;20025;-66
2023/01/26 15:34:00;;;;;;;29.65;14.27;;;;;;;;;;5077369;28;20036;-67